Time;durP1;ratioP1;P1;durP2;ratioP2;P2;SDS_P1;SDS_P2;PMS_P1;PMS_P2;Temp;Humidity;BMP_temperature;BMP_pressure;BME280_temperature;BME280_humidity;BME280_pressure;Samples;Min_cycle;Max_cycle;Signal;HPM_P1;HPM_P2
2021/06/02 00:02:02;;;;;;;5.88;3.90;;;;;;;16.07;58.57;100270.19;4991476;28;20042;-62
2021/06/02 00:04:32;;;;;;;5.65;3.80;;;;;;;16.04;58.81;100267.75;4987661;28;20046;-60
2021/06/02 00:07:06;;;;;;;5.32;3.78;;;;;;;15.96;58.86;100265.63;4976580;28;20046;-61
2021/06/02 00:09:33;;;;;;;6.07;3.80;;;;;;;15.93;59.12;100264.97;4978958;28;20532;-62
2021/06/02 00:12:04;;;;;;;4.82;3.78;;;;;;;15.92;58.94;100268.63;4989324;28;20049;-64
2021/06/02 00:14:30;;;;;;;;;;;;;;;15.90;59.26;100268.72;4989392;28;20076;-62
2021/06/02 00:16:58;;;;;;;4.30;3.50;;;;;;;15.88;59.22;100265.34;4986597;28;19932;-62
2021/06/02 00:19:25;;;;;;;7.43;3.95;;;;;;;15.88;59.10;100267.16;4981863;28;20490;-63
2021/06/02 00:21:53;;;;;;;6.80;3.90;;;;;;;15.87;59.14;100266.28;4981065;28;20050;-62
2021/06/02 00:24:20;;;;;;;4.97;4.00;;;;;;;15.83;59.34;100258.59;4977102;28;20046;-63
2021/06/02 00:26:54;;;;;;;7.18;3.80;;;;;;;15.79;59.49;100257.97;4979026;28;20054;-63
2021/06/02 00:29:24;;;;;;;6.00;3.67;;;;;;;15.76;59.78;100261.69;4969149;28;20062;-63
2021/06/02 00:31:52;;;;;;;5.45;3.80;;;;;;;15.73;59.97;100256.59;4979894;28;20042;-62
2021/06/02 00:34:20;;;;;;;6.20;3.88;;;;;;;15.70;60.36;100262.16;4966150;28;20090;-62
2021/06/02 00:36:48;;;;;;;5.53;3.97;;;;;;;15.71;60.57;100253.19;4976129;28;20565;-62
2021/06/02 00:39:14;;;;;;;4.88;4.20;;;;;;;15.71;60.38;100260.31;4971592;28;20050;-61
2021/06/02 00:41:43;;;;;;;4.68;3.97;;;;;;;15.66;60.65;100252.63;4965867;28;20046;-60
2021/06/02 00:44:11;;;;;;;6.13;4.28;;;;;;;15.58;60.74;100257.66;4964998;28;20054;-62
2021/06/02 00:46:39;;;;;;;5.97;4.05;;;;;;;15.52;60.69;100257.19;4957655;28;20042;-62
2021/06/02 00:49:09;;;;;;;4.10;3.67;;;;;;;15.51;60.61;100261.69;4970896;28;20054;-63
2021/06/02 00:51:36;;;;;;;6.63;4.33;;;;;;;15.44;61.00;100263.06;4968413;28;20616;-63
2021/06/02 00:54:06;;;;;;;5.00;4.18;;;;;;;15.38;61.42;100263.50;4963464;28;20485;-62
2021/06/02 00:56:52;;;;;;;5.45;4.35;;;;;;;15.36;61.50;100262.75;4968184;28;20063;-62
2021/06/02 00:59:29;;;;;;;6.45;3.88;;;;;;;15.34;61.96;100264.66;4967532;28;20837;-63
2021/06/02 01:01:57;;;;;;;4.88;4.38;;;;;;;15.29;62.41;100253.44;4971353;28;20058;-62
2021/06/02 01:04:26;;;;;;;5.85;4.18;;;;;;;15.26;62.31;100254.53;4976887;28;20039;-63
2021/06/02 01:06:53;;;;;;;4.97;3.90;;;;;;;15.27;62.65;100266.03;4964489;28;20051;-61
2021/06/02 01:09:21;;;;;;;5.07;4.15;;;;;;;15.23;62.87;100254.72;4971075;28;20469;-63
2021/06/02 01:11:50;;;;;;;7.60;4.28;;;;;;;15.24;63.07;100266.25;4970852;28;20042;-62
2021/06/02 01:14:22;;;;;;;8.07;4.60;;;;;;;15.22;62.79;100260.16;4969026;28;20055;-63
2021/06/02 01:16:49;;;;;;;6.40;4.45;;;;;;;15.17;62.41;100264.94;4973339;28;20042;-63
2021/06/02 01:19:20;;;;;;;8.35;5.38;;;;;;;15.08;62.76;100269.97;4966656;28;20061;-61
2021/06/02 01:21:59;;;;;;;5.55;4.78;;;;;;;15.05;63.01;100271.97;4972110;28;20042;-62
2021/06/02 01:24:27;;;;;;;6.50;4.95;;;;;;;15.02;62.86;100269.50;4964348;28;20050;-60
2021/06/02 01:26:57;;;;;;;5.47;4.55;;;;;;;14.96;63.46;100273.44;4960553;28;20043;-63
2021/06/02 01:29:25;;;;;;;5.55;5.03;;;;;;;14.92;63.66;100277.28;4970925;28;20141;-62
2021/06/02 01:32:16;;;;;;;5.50;4.88;;;;;;;14.88;63.41;100278.44;4972964;28;20065;-61
2021/06/02 01:34:58;;;;;;;6.28;4.78;;;;;;;14.84;63.59;100279.59;4962177;28;20042;-62
2021/06/02 01:37:46;;;;;;;5.57;4.50;;;;;;;14.80;63.47;100271.88;4968101;28;20053;-62
2021/06/02 01:40:31;;;;;;;5.47;4.53;;;;;;;14.78;64.12;100274.69;4963758;28;20050;-61
2021/06/02 01:43:28;;;;;;;6.55;4.72;;;;;;;14.78;63.86;100273.81;4968421;28;20043;-62
2021/06/02 01:46:33;;;;;;;5.47;4.53;;;;;;;14.76;63.82;100283.72;4974335;28;20052;-61
2021/06/02 01:49:02;;;;;;;7.57;4.55;;;;;;;14.74;64.13;100267.84;4963450;28;20050;-62
2021/06/02 01:52:09;;;;;;;5.68;4.63;;;;;;;14.72;63.97;100280.41;4971271;28;20061;-61
2021/06/02 01:55:00;;;;;;;5.80;4.85;;;;;;;14.62;64.39;100279.31;4968620;28;20583;-62
2021/06/02 01:57:30;;;;;;;6.68;5.47;;;;;;;14.58;64.10;100277.78;4962106;28;21093;-60
2021/06/02 02:00:02;;;;;;;5.88;4.80;;;;;;;14.53;64.54;100279.91;4964266;28;20521;-61
2021/06/02 02:03:07;;;;;;;5.80;4.57;;;;;;;14.49;64.46;100278.38;4972586;28;20541;-61
2021/06/02 02:05:58;;;;;;;5.43;4.10;;;;;;;14.47;64.79;100274.97;4976360;28;20425;-61
2021/06/02 02:08:45;;;;;;;5.38;4.60;;;;;;;14.47;64.77;100274.97;4960797;28;26101;-60
2021/06/02 02:11:37;;;;;;;7.50;4.85;;;;;;;14.45;64.83;100276.88;4973114;28;20065;-61
2021/06/02 02:14:27;;;;;;;4.93;4.50;;;;;;;14.46;64.74;100275.94;4970268;28;20058;-61
2021/06/02 02:17:27;;;;;;;5.65;4.95;;;;;;;14.45;65.17;100276.88;4965679;28;20084;-63
2021/06/02 02:20:07;;;;;;;5.30;4.57;;;;;;;14.46;65.42;100268.81;4975817;28;20058;-66
2021/06/02 02:23:01;;;;;;;7.75;4.53;;;;;;;14.49;65.90;100286.38;4973722;28;20057;-61
2021/06/02 02:25:57;;;;;;;8.55;4.78;;;;;;;14.47;65.77;100277.66;4972982;28;20050;-62
2021/06/02 02:28:43;;;;;;;4.70;4.25;;;;;;;14.49;65.65;100283.69;4959979;28;20564;-62
2021/06/02 02:31:27;;;;;;;8.98;4.57;;;;;;;14.47;65.89;100288.31;4983643;28;20050;-61
2021/06/02 02:34:25;;;;;;;5.68;4.32;;;;;;;14.47;65.71;100285.63;4968193;28;20054;-61
2021/06/02 02:37:03;;;;;;;4.80;4.30;;;;;;;14.44;65.11;100288.50;4967857;28;20135;-63
2021/06/02 02:39:41;;;;;;;7.25;4.63;;;;;;;14.39;65.21;100291.41;4968385;28;20066;-60
2021/06/02 02:42:25;;;;;;;6.25;4.47;;;;;;;14.36;65.61;100281.81;4978562;28;20066;-62
2021/06/02 02:45:04;;;;;;;6.30;4.80;;;;;;;14.34;65.77;100294.38;4970918;28;20123;-62
2021/06/02 02:47:52;;;;;;;6.63;4.43;;;;;;;14.29;66.48;100287.63;4972365;28;20054;-60
2021/06/02 02:50:34;;;;;;;6.55;4.80;;;;;;;14.26;65.97;100296.69;4983449;28;20046;-62
2021/06/02 02:53:04;;;;;;;6.47;5.20;;;;;;;14.26;65.76;100301.16;4970018;28;20621;-62
2021/06/02 02:55:36;;;;;;;6.85;4.50;;;;;;;14.25;65.60;100302.09;4975938;28;20057;-60
2021/06/02 02:58:21;;;;;;;6.70;4.70;;;;;;;14.22;65.48;100303.16;4968388;28;20060;-62
2021/06/02 03:00:53;;;;;;;7.53;4.90;;;;;;;14.23;65.67;100306.66;4981689;28;20055;-61
2021/06/02 03:03:30;;;;;;;7.57;4.22;;;;;;;14.21;65.80;100296.09;4971411;28;20058;-61
2021/06/02 03:06:14;;;;;;;5.40;4.75;;;;;;;14.20;65.47;100297.06;4975058;28;20050;-60
2021/06/02 03:08:59;;;;;;;6.40;4.85;;;;;;;14.19;65.19;100298.00;4968870;28;20731;-62
2021/06/02 03:11:38;;;;;;;5.15;4.25;;;;;;;14.17;65.84;100299.03;4960171;28;20042;-61
2021/06/02 03:14:32;;;;;;;5.15;4.30;;;;;;;14.20;65.74;100301.53;4974168;28;20046;-61
2021/06/02 03:17:06;;;;;;;5.32;4.82;;;;;;;14.17;65.54;100296.38;4971209;28;20047;-60
2021/06/02 03:19:45;;;;;;;6.97;4.63;;;;;;;14.12;65.70;100310.00;4967185;28;20109;-62
2021/06/02 03:22:14;;;;;;;6.30;4.45;;;;;;;14.11;66.38;100310.09;4972223;28;20066;-62
2021/06/02 03:25:02;;;;;;;6.72;4.65;;;;;;;14.11;66.32;100305.63;4975319;28;20050;-61
2021/06/02 03:27:35;;;;;;;6.95;4.93;;;;;;;14.09;66.31;100302.22;4970591;28;20081;-62
2021/06/02 03:30:29;;;;;;;5.63;4.70;;;;;;;14.07;66.63;100300.59;4973990;28;20046;-61
2021/06/02 03:33:22;;;;;;;5.85;5.15;;;;;;;14.02;66.23;100303.53;4973706;28;20395;-60
2021/06/02 03:36:05;;;;;;;5.05;4.53;;;;;;;14.03;66.67;100307.91;4977541;28;20053;-60
2021/06/02 03:39:00;;;;;;;7.50;5.18;;;;;;;14.03;66.55;100305.25;4972987;28;20050;-60
2021/06/02 03:41:42;;;;;;;5.45;4.65;;;;;;;14.05;67.10;100309.53;4977110;28;20084;-61
2021/06/02 03:44:14;;;;;;;6.25;4.90;;;;;;;14.05;67.10;100311.34;4983077;28;20042;-60
2021/06/02 03:47:19;;;;;;;5.65;4.63;;;;;;;13.99;66.97;100317.06;4977914;28;20057;-61
2021/06/02 03:50:08;;;;;;;6.15;4.32;;;;;;;13.97;67.63;100318.97;4985096;28;20486;-65
2021/06/02 03:53:03;;;;;;;5.90;4.75;;;;;;;13.92;67.45;100316.56;4988363;28;20050;-61
2021/06/02 03:55:35;;;;;;;7.45;5.03;;;;;;;13.92;68.20;100321.91;4973785;28;20089;-62
2021/06/02 03:58:40;;;;;;;5.18;4.55;;;;;;;13.96;68.19;100327.91;4966248;28;20699;-61
2021/06/02 04:01:32;;;;;;;9.95;5.10;;;;;;;13.95;67.39;100312.88;4972910;28;20668;-62
2021/06/02 04:04:07;;;;;;;7.25;4.70;;;;;;;13.94;67.61;100316.47;4991550;28;20101;-62
2021/06/02 04:06:36;;;;;;;7.32;4.72;;;;;;;13.93;67.37;100322.75;4992109;28;20137;-62
2021/06/02 04:09:22;;;;;;;7.47;5.18;;;;;;;13.94;68.24;100325.31;4983663;28;20057;-62
2021/06/02 04:12:18;;;;;;;8.15;5.20;;;;;;;13.98;68.43;100315.34;4976029;28;20053;-62
2021/06/02 04:14:58;;;;;;;6.15;4.78;;;;;;;14.03;68.39;100313.22;4977451;28;20058;-61
2021/06/02 04:17:26;;;;;;;6.97;5.10;;;;;;;14.10;68.30;100319.91;4969619;28;20061;-62
2021/06/02 04:19:54;;;;;;;8.77;5.30;;;;;;;14.14;68.38;100320.56;4976219;28;20050;-62
2021/06/02 04:22:23;;;;;;;6.22;5.57;;;;;;;14.15;68.48;100317.81;4972955;28;20061;-62
2021/06/02 04:24:51;;;;;;;7.45;5.25;;;;;;;14.15;68.70;100322.28;4979742;28;20053;-61
2021/06/02 04:27:19;;;;;;;6.25;5.35;;;;;;;14.17;68.47;100323.00;4974049;28;20050;-62
2021/06/02 04:29:50;;;;;;;7.13;5.30;;;;;;;14.20;68.44;100329.00;4982500;28;20054;-61
2021/06/02 04:32:18;;;;;;;7.07;4.85;;;;;;;14.22;68.71;100324.44;4979065;28;20057;-62
2021/06/02 04:34:45;;;;;;;8.93;5.32;;;;;;;14.25;68.39;100326.94;4976315;28;20042;-62
2021/06/02 04:37:12;;;;;;;6.47;5.15;;;;;;;14.27;68.51;100325.03;4973168;28;20050;-62
2021/06/02 04:39:41;;;;;;;8.23;5.38;;;;;;;14.31;67.85;100331.03;4974031;28;20054;-62
2021/06/02 04:42:10;;;;;;;8.32;5.68;;;;;;;14.36;67.52;100321.75;4973802;28;20054;-62
2021/06/02 04:44:38;;;;;;;7.75;5.32;;;;;;;14.41;67.49;100333.97;4974632;28;20498;-61
2021/06/02 04:47:05;;;;;;;9.23;5.07;;;;;;;14.46;66.82;100330.06;4971139;28;20061;-62
2021/06/02 04:50:05;;;;;;;6.25;5.63;;;;;;;14.54;67.09;100340.22;4972276;28;20054;-62
2021/06/02 04:52:31;;;;;;;6.87;5.27;;;;;;;14.56;65.93;100339.19;4973772;28;20050;-63
2021/06/02 04:55:28;;;;;;;6.32;5.00;;;;;;;14.64;65.92;100338.66;4973541;28;20057;-63
2021/06/02 04:58:09;;;;;;;6.40;4.85;;;;;;;14.73;64.75;100340.75;4966992;28;20075;-61
2021/06/02 05:01:00;;;;;;;6.80;4.93;;;;;;;14.78;64.40;100341.31;4974066;28;20587;-61
2021/06/02 05:03:49;;;;;;;6.88;4.72;;;;;;;14.88;63.18;100345.09;4981850;28;20058;-61
2021/06/02 05:06:24;;;;;;;6.47;4.60;;;;;;;14.96;62.87;100344.56;4973641;28;20050;-64
2021/06/02 05:09:12;;;;;;;7.25;4.93;;;;;;;15.08;62.42;100346.44;4970383;28;20064;-62
2021/06/02 05:12:17;;;;;;;5.72;4.30;;;;;;;15.22;60.98;100342.84;4978164;28;20077;-63
2021/06/02 05:15:14;;;;;;;6.07;4.53;;;;;;;15.37;60.06;100355.16;4976091;28;20056;-62
2021/06/02 05:18:10;;;;;;;5.43;4.38;;;;;;;15.51;58.67;100351.56;4969227;28;20080;-63
2021/06/02 05:23:52;;;;;;;6.75;4.78;;;;;;;15.77;57.24;100361.34;4970517;28;20172;-62
2021/06/02 05:26:37;;;;;;;4.40;4.00;;;;;;;15.85;56.41;100361.66;4974411;28;20057;-62
2021/06/02 05:29:32;;;;;;;4.25;3.70;;;;;;;15.93;56.23;100371.81;4968693;28;20050;-61
2021/06/02 05:32:20;;;;;;;6.75;4.35;;;;;;;16.01;55.62;100374.81;4977881;28;21029;-62
2021/06/02 05:35:22;;;;;;;6.45;4.18;;;;;;;16.10;55.41;100374.16;4972307;28;20073;-63
2021/06/02 05:38:00;;;;;;;7.60;4.57;;;;;;;16.21;54.97;100381.44;4946455;28;20050;-62
2021/06/02 05:41:05;;;;;;;6.60;4.60;;;;;;;16.32;54.83;100381.53;4968513;28;20050;-62
2021/06/02 05:43:56;;;;;;;7.78;4.47;;;;;;;16.41;54.38;100373.69;4967377;28;20136;-62
2021/06/02 05:46:42;;;;;;;8.27;4.20;;;;;;;16.52;53.71;100364.06;4971139;28;22128;-62
2021/06/02 05:49:27;;;;;;;7.15;4.07;;;;;;;16.61;53.34;100368.75;4967014;28;20054;-62
2021/06/02 05:52:01;;;;;;;5.82;4.07;;;;;;;16.71;53.16;100373.34;4975275;28;20054;-63
2021/06/02 05:54:51;;;;;;;6.90;4.30;;;;;;;16.84;52.92;100371.47;4976884;28;20046;-61
2021/06/02 05:57:36;;;;;;;9.25;4.47;;;;;;;17.06;51.76;100375.25;4976540;28;20421;-61
2021/06/02 06:00:15;;;;;;;4.65;4.10;;;;;;;17.38;50.12;100373.69;4973687;28;20133;-62
2021/06/02 06:02:51;;;;;;;6.05;3.83;;;;;;;17.96;48.84;100376.44;4972818;28;20049;-57
2021/06/02 06:05:55;;;;;;;5.82;3.97;;;;;;;20.18;44.01;100374.97;4973816;28;20062;-56
2021/06/02 06:08:34;;;;;;;9.65;4.00;;;;;;;22.74;38.06;100368.22;4982896;28;20077;-57
2021/06/02 06:11:22;;;;;;;5.38;3.80;;;;;;;24.58;34.19;100366.56;4977318;28;20180;-57
2021/06/02 06:14:17;;;;;;;6.00;3.80;;;;;;;25.83;31.28;100375.50;4974197;28;20065;-57
2021/06/02 06:16:52;;;;;;;17.58;4.05;;;;;;;26.72;29.60;100371.75;4982250;28;20050;-57
2021/06/02 06:19:27;;;;;;;6.65;3.85;;;;;;;27.76;27.94;100374.00;4975461;28;20065;-58
2021/06/02 06:22:15;;;;;;;6.20;3.58;;;;;;;28.61;26.33;100372.63;4977103;28;20051;-57
2021/06/02 06:25:03;;;;;;;7.05;3.88;;;;;;;29.31;25.05;100366.53;4974033;28;20051;-57
2021/06/02 06:27:38;;;;;;;5.90;3.95;;;;;;;29.67;24.83;100382.03;4981018;28;20531;-57
2021/06/02 06:30:09;;;;;;;5.07;3.70;;;;;;;30.11;25.11;100380.94;4969402;28;20057;-56
2021/06/02 06:32:38;;;;;;;4.10;3.67;;;;;;;30.38;24.15;100371.88;4999117;28;20043;-57
2021/06/02 06:35:06;;;;;;;3.88;3.33;;;;;;;30.81;23.73;100372.56;4980592;28;21507;-57
2021/06/02 06:37:39;;;;;;;6.47;3.63;;;;;;;31.23;23.73;100373.38;4965425;28;20054;-55
2021/06/02 06:40:14;;;;;;;4.65;3.50;;;;;;;31.71;21.62;100366.72;4973936;28;20146;-56
2021/06/02 06:42:43;;;;;;;4.78;3.40;;;;;;;31.49;22.74;100364.34;4972412;28;20054;-57
2021/06/02 06:45:17;;;;;;;4.13;3.60;;;;;;;31.01;23.82;100362.53;4982700;28;20050;-56
2021/06/02 06:47:47;;;;;;;4.50;3.28;;;;;;;30.91;22.57;100366.72;4981602;28;20524;-57
2021/06/02 06:50:15;;;;;;;8.32;3.63;;;;;;;30.84;23.01;100369.44;4979511;28;20064;-58
2021/06/02 06:52:44;;;;;;;5.35;3.15;;;;;;;31.11;22.77;100364.09;4975207;28;20042;-56
2021/06/02 06:55:12;;;;;;;7.30;3.40;;;;;;;31.70;23.00;100367.78;4979471;28;20062;-59
2021/06/02 06:57:39;;;;;;;4.78;3.15;;;;;;;31.90;22.64;100366.94;4980660;28;20502;-57
2021/06/02 07:00:08;;;;;;;5.57;3.20;;;;;;;31.84;22.02;100362.31;4972548;28;20073;-57
2021/06/02 07:02:37;;;;;;;6.80;3.47;;;;;;;31.39;23.96;100372.97;4972400;28;20054;-57
2021/06/02 07:05:05;;;;;;;5.07;3.20;;;;;;;31.16;24.47;100365.16;4950665;28;20078;-59
2021/06/02 07:07:36;;;;;;;4.93;3.08;;;;;;;30.94;25.37;100369.88;4955722;28;20512;-57
2021/06/02 07:10:04;;;;;;;4.22;3.25;;;;;;;31.00;26.11;100374.56;4965423;28;20093;-57
2021/06/02 07:12:32;;;;;;;6.85;3.58;;;;;;;31.79;25.46;100373.06;4980583;28;20049;-58
2021/06/02 07:15:00;;;;;;;5.32;3.50;;;;;;;32.38;25.42;100368.38;4977380;28;20371;-58
2021/06/02 07:17:27;;;;;;;7.20;3.95;;;;;;;33.08;24.33;100374.03;4977702;28;20112;-57
2021/06/02 07:19:59;;;;;;;8.07;3.50;;;;;;;33.28;24.58;100377.56;4973870;28;20042;-57
2021/06/02 07:22:27;;;;;;;8.30;3.75;;;;;;;32.78;24.19;100383.88;4978184;28;20422;-57
2021/06/02 07:25:03;;;;;;;6.75;3.90;;;;;;;32.43;25.19;100374.03;4983517;28;20046;-59
2021/06/02 07:27:30;;;;;;;6.57;3.30;;;;;;;32.78;24.00;100376.50;4975394;28;20551;-58
2021/06/02 07:29:57;;;;;;;6.43;3.38;;;;;;;32.29;24.78;100382.50;4976014;28;20046;-60
2021/06/02 07:32:23;;;;;;;4.35;3.03;;;;;;;31.01;25.75;100378.94;4978991;28;20065;-61
2021/06/02 07:34:51;;;;;;;7.15;3.10;;;;;;;31.08;26.74;100381.72;4984056;28;20994;-58
2021/06/02 07:37:18;;;;;;;5.10;3.10;;;;;;;31.16;25.85;100372.53;4991705;28;20037;-59
2021/06/02 07:39:44;;;;;;;5.35;3.47;;;;;;;31.57;25.60;100375.97;4985928;28;20046;-59
2021/06/02 07:42:11;;;;;;;4.45;3.00;;;;;;;31.28;25.37;100374.44;4974055;28;20499;-59
2021/06/02 07:44:37;;;;;;;5.88;2.97;;;;;;;31.26;25.64;100368.31;4995208;28;20054;-57
2021/06/02 07:47:04;;;;;;;3.25;2.90;;;;;;;31.29;24.96;100373.41;4979826;28;20046;-57
2021/06/02 07:49:30;;;;;;;5.95;3.15;;;;;;;31.24;24.22;100370.44;4973723;28;20593;-56
2021/06/02 07:52:00;;;;;;;5.55;2.65;;;;;;;30.92;22.41;100374.72;4965535;28;20057;-58
2021/06/02 07:54:27;;;;;;;6.88;3.00;;;;;;;31.12;23.71;100372.09;4976861;28;20046;-59
2021/06/02 07:56:54;;;;;;;3.65;2.80;;;;;;;31.81;22.74;100376.41;4971739;28;20046;-59
2021/06/02 07:59:21;;;;;;;5.13;2.88;;;;;;;31.94;21.69;100374.53;4972658;28;20061;-61
2021/06/02 08:01:48;;;;;;;5.82;2.90;;;;;;;31.54;22.44;100372.78;4972204;28;20062;-60
2021/06/02 08:04:14;;;;;;;6.82;2.65;;;;;;;31.21;22.27;100375.47;4974424;28;20065;-59
2021/06/02 08:06:41;;;;;;;3.22;2.92;;;;;;;30.95;22.65;100373.47;4988444;28;20054;-60
2021/06/02 08:09:08;;;;;;;5.38;3.00;;;;;;;30.47;23.42;100372.56;4981195;28;20068;-59
2021/06/02 08:11:34;;;;;;;4.97;3.03;;;;;;;30.42;23.79;100370.44;4974098;28;20088;-60
2021/06/02 08:14:01;;;;;;;5.28;3.08;;;;;;;30.86;23.49;100366.47;4978000;28;20053;-59
2021/06/02 08:16:27;;;;;;;5.60;2.95;;;;;;;31.10;23.02;100368.72;4965052;28;20093;-58
2021/06/02 08:18:54;;;;;;;6.00;3.22;;;;;;;31.03;22.84;100376.00;4955510;28;20054;-59
2021/06/02 08:21:21;;;;;;;5.15;2.85;;;;;;;31.26;22.44;100379.28;4966459;28;20057;-58
2021/06/02 08:23:47;;;;;;;3.53;2.78;;;;;;;31.38;23.29;100372.13;4969527;28;20050;-58
2021/06/02 08:26:14;;;;;;;5.25;3.03;;;;;;;31.02;22.90;100377.88;4976102;28;20046;-59
2021/06/02 08:28:40;;;;;;;3.85;2.60;;;;;;;30.53;23.50;100380.81;4976584;28;20050;-57
2021/06/02 08:31:07;;;;;;;3.90;3.22;;;;;;;30.37;23.85;100380.31;4969349;28;20498;-60
2021/06/02 08:33:33;;;;;;;5.53;2.95;;;;;;;30.12;24.19;100383.47;4972523;28;20085;-59
2021/06/02 08:36:00;;;;;;;4.47;2.90;;;;;;;29.90;24.51;100379.09;4974165;28;20049;-59
2021/06/02 08:38:27;;;;;;;5.20;3.15;;;;;;;29.56;24.75;100388.88;4975765;28;20055;-58
2021/06/02 08:40:53;;;;;;;5.50;3.13;;;;;;;29.06;25.82;100384.31;4969125;28;20047;-59
2021/06/02 08:43:21;;;;;;;4.50;3.05;;;;;;;28.83;26.38;100381.72;4973025;28;20883;-59
2021/06/02 08:45:48;;;;;;;5.25;3.42;;;;;;;28.15;28.36;100377.38;4970954;28;20822;-59
2021/06/02 08:48:15;;;;;;;4.05;3.08;;;;;;;27.24;28.30;100380.97;4975268;28;20600;-59
2021/06/02 08:50:51;;;;;;;3.90;3.20;;;;;;;26.60;28.89;100378.59;5032790;28;21239;-60
2021/06/02 08:53:20;;;;;;;4.55;3.10;;;;;;;26.01;29.90;100381.59;5033199;28;20056;-59
2021/06/02 08:55:47;;;;;;;4.70;3.60;;;;;;;25.74;31.29;100376.53;5027920;28;20554;-59
2021/06/02 08:58:22;;;;;;;4.55;2.70;;;;;;;25.30;30.82;100373.25;5030071;28;20050;-59
2021/06/02 09:00:49;;;;;;;4.47;3.00;;;;;;;25.22;30.74;100373.22;5028494;28;20959;-59
2021/06/02 09:03:17;;;;;;;6.93;3.25;;;;;;;25.15;31.06;100371.22;5032465;28;21097;-58
2021/06/02 09:05:43;;;;;;;6.35;2.90;;;;;;;25.10;31.31;100360.00;5029324;28;20057;-59
2021/06/02 09:08:13;;;;;;;5.40;2.65;;;;;;;25.12;31.35;100365.25;5031865;28;20045;-58
2021/06/02 09:10:44;;;;;;;7.20;3.10;;;;;;;25.16;31.24;100362.06;5031026;28;20049;-58
2021/06/02 09:13:19;;;;;;;3.50;2.75;;;;;;;25.21;30.78;100357.97;5031357;28;20049;-58
2021/06/02 09:15:48;;;;;;;4.95;2.85;;;;;;;25.16;31.27;100364.78;5031047;28;20052;-57
2021/06/02 09:18:21;;;;;;;3.47;2.63;;;;;;;25.09;31.28;100357.47;5026165;28;20064;-59
2021/06/02 09:20:53;;;;;;;5.88;2.80;;;;;;;25.03;30.47;100349.97;5028808;28;20744;-58
2021/06/02 09:23:43;;;;;;;4.15;2.65;;;;;;;24.83;31.18;100360.25;5030143;28;20045;-58
2021/06/02 09:26:10;;;;;;;4.28;2.83;;;;;;;24.84;31.42;100353.81;5025647;28;20068;-57
2021/06/02 09:28:46;;;;;;;6.78;2.97;;;;;;;24.83;31.36;100352.13;5027012;28;20045;-58
2021/06/02 09:31:35;;;;;;;3.10;2.80;;;;;;;24.67;31.43;100352.91;5032886;28;20051;-58
2021/06/02 09:34:17;;;;;;;3.42;2.95;;;;;;;24.70;31.72;100355.31;5034342;28;20073;-59
2021/06/02 09:36:47;;;;;;;4.13;2.85;;;;;;;24.71;31.27;100356.97;5034358;28;20063;-57
2021/06/02 09:39:15;;;;;;;3.15;2.80;;;;;;;24.71;30.90;100350.75;5032860;28;20530;-57
2021/06/02 09:41:44;;;;;;;3.95;2.65;;;;;;;24.70;29.99;100354.47;5033849;28;20103;-57
2021/06/02 09:44:13;;;;;;;5.70;2.58;;;;;;;24.63;29.99;100353.41;5029258;28;20084;-57
2021/06/02 09:47:00;;;;;;;2.58;2.28;;;;;;;24.67;30.64;100355.63;5033985;28;20186;-60
2021/06/02 09:49:29;;;;;;;5.57;2.90;;;;;;;24.77;30.11;100352.78;5030438;28;20485;-60
2021/06/02 09:51:55;;;;;;;3.22;2.30;;;;;;;24.80;30.79;100349.75;5031809;28;20435;-58
2021/06/02 09:54:24;;;;;;;3.53;2.67;;;;;;;24.88;30.06;100346.19;5034868;28;20056;-59
2021/06/02 09:56:51;;;;;;;4.25;2.50;;;;;;;24.99;29.13;100354.91;5037032;28;20049;-59
2021/06/02 09:59:19;;;;;;;4.38;3.00;;;;;;;25.18;28.96;100354.59;5034070;28;20048;-60
2021/06/02 10:02:01;;;;;;;4.40;2.20;;;;;;;25.32;28.37;100349.56;5021698;28;20045;-58
2021/06/02 10:04:35;;;;;;;2.97;2.25;;;;;;;25.35;27.89;100358.16;5011857;28;20729;-59
2021/06/02 10:07:04;;;;;;;3.33;2.30;;;;;;;25.25;28.53;100352.06;5012553;28;20057;-61
2021/06/02 10:09:35;;;;;;;3.45;2.47;;;;;;;25.20;28.42;100349.00;5009539;28;20056;-59
2021/06/02 10:12:08;;;;;;;4.65;2.40;;;;;;;25.13;28.54;100339.88;5012548;28;20445;-61
2021/06/02 10:14:56;;;;;;;4.22;2.60;;;;;;;25.20;28.20;100346.28;5018152;28;20050;-60
2021/06/02 10:17:30;;;;;;;2.60;2.30;;;;;;;25.32;28.75;100353.09;5012584;28;20055;-60
2021/06/02 10:19:59;;;;;;;5.95;2.28;;;;;;;25.46;28.09;100357.88;5016575;28;20048;-60
2021/06/02 10:22:29;;;;;;;3.40;2.25;;;;;;;25.52;26.95;100351.75;5013734;28;20513;-58
2021/06/02 10:25:02;;;;;;;4.05;2.20;;;;;;;25.58;27.16;100360.22;5025135;28;20058;-57
2021/06/02 10:27:28;;;;;;;2.42;2.00;;;;;;;25.67;28.26;100349.22;5016797;28;20042;-59
2021/06/02 10:29:55;;;;;;;3.92;2.17;;;;;;;25.72;27.31;100360.44;5013882;28;20056;-61
2021/06/02 10:32:23;;;;;;;5.05;2.65;;;;;;;25.73;26.98;100345.00;5012433;28;20425;-59
2021/06/02 10:34:53;;;;;;;3.20;2.30;;;;;;;25.77;26.38;100349.06;5012678;28;20058;-59
2021/06/02 10:37:22;;;;;;;6.80;2.40;;;;;;;25.79;27.56;100347.03;5011039;28;20112;-59
2021/06/02 10:39:52;;;;;;;2.65;2.40;;;;;;;25.78;27.27;100348.91;5014791;28;20042;-60
2021/06/02 10:42:27;;;;;;;2.42;2.22;;;;;;;25.88;27.10;100351.41;5011823;28;20053;-59
2021/06/02 10:44:59;;;;;;;5.05;2.28;;;;;;;26.07;26.61;100361.06;5016517;28;21475;-59
2021/06/02 10:47:26;;;;;;;2.90;2.08;;;;;;;26.10;26.40;100355.28;5018859;28;20072;-59
2021/06/02 10:49:54;;;;;;;3.35;2.63;;;;;;;26.09;27.03;100361.75;5016938;28;20053;-59
2021/06/02 10:52:41;;;;;;;2.85;2.60;;;;;;;26.21;27.12;100347.63;5016597;28;20068;-58
2021/06/02 10:55:30;;;;;;;3.35;2.30;;;;;;;26.27;27.42;100350.69;5015296;28;21265;-58
2021/06/02 10:58:17;;;;;;;3.42;2.50;;;;;;;26.32;27.15;100353.72;5019447;28;20651;-59
2021/06/02 11:00:44;;;;;;;2.60;2.40;;;;;;;26.29;27.66;100354.09;5012784;28;20041;-59
2021/06/02 11:03:28;;;;;;;2.33;2.13;;;;;;;26.21;27.23;100352.22;5019538;28;20098;-60
2021/06/02 11:06:13;;;;;;;4.25;2.58;;;;;;;26.28;27.36;100355.94;5018132;28;20050;-59
2021/06/02 11:08:52;;;;;;;3.30;2.45;;;;;;;26.31;26.74;100349.31;5015217;28;20061;-59
2021/06/02 11:11:22;;;;;;;3.80;2.38;;;;;;;26.29;26.44;100351.38;5015212;28;20790;-58
2021/06/02 11:14:13;;;;;;;2.85;2.05;;;;;;;26.35;26.94;100348.81;5014647;28;20183;-60
2021/06/02 11:16:48;;;;;;;3.20;2.25;;;;;;;26.39;25.78;100347.44;5011585;28;20053;-58
2021/06/02 11:19:20;;;;;;;5.43;2.33;;;;;;;26.41;25.59;100349.97;5001457;28;20063;-60
2021/06/02 11:21:52;;;;;;;2.70;2.22;;;;;;;26.35;26.54;100353.38;5024882;28;20137;-59
2021/06/02 11:24:32;;;;;;;4.05;2.17;;;;;;;26.37;26.40;100348.63;5020224;28;20647;-59
2021/06/02 11:27:13;;;;;;;2.63;2.03;;;;;;;26.44;26.04;100346.91;5024145;28;20071;-59
2021/06/02 11:29:52;;;;;;;3.80;2.10;;;;;;;26.58;26.63;100343.47;5021418;28;20048;-59
2021/06/02 11:32:22;;;;;;;2.67;1.92;;;;;;;26.58;24.79;100345.34;5010944;28;20042;-58
2021/06/02 11:34:53;;;;;;;2.20;2.00;;;;;;;26.65;25.41;100341.72;5010065;28;20046;-58
2021/06/02 11:37:26;;;;;;;2.42;1.88;;;;;;;26.74;24.86;100351.53;5015578;28;20049;-57
2021/06/02 11:39:55;;;;;;;2.40;2.10;;;;;;;26.80;26.03;100339.94;5009219;28;20140;-57
2021/06/02 11:42:42;;;;;;;2.42;2.20;;;;;;;26.61;25.49;100336.81;5011495;28;20102;-60
2021/06/02 11:45:12;;;;;;;4.00;2.22;;;;;;;26.61;26.26;100342.25;5010496;28;20068;-60
2021/06/02 11:47:43;;;;;;;3.03;2.60;;;;;;;26.69;25.81;100350.38;5011020;28;20057;-58
2021/06/02 11:50:12;;;;;;;3.33;1.92;;;;;;;26.72;24.30;100353.59;5016256;28;20046;-60
2021/06/02 11:52:38;;;;;;;2.15;1.90;;;;;;;26.86;25.55;100335.69;5007382;28;20064;-59
2021/06/02 11:55:08;;;;;;;2.80;2.00;;;;;;;26.89;24.53;100347.03;5004750;28;20060;-57
2021/06/02 11:57:37;;;;;;;2.50;2.30;;;;;;;26.92;24.83;100343.94;5002499;28;20136;-66
2021/06/02 12:00:05;;;;;;;2.63;2.10;;;;;;;27.04;25.08;100343.59;5001259;28;20049;-63
2021/06/02 12:02:33;;;;;;;3.13;2.00;;;;;;;27.20;25.22;100338.88;5004354;28;20053;-61
2021/06/02 12:05:27;;;;;;;2.75;2.08;;;;;;;27.23;24.00;100345.84;5005273;28;20056;-58
2021/06/02 12:07:56;;;;;;;3.42;2.00;;;;;;;27.23;24.70;100334.97;5003584;28;20054;-60